Time;durP1;ratioP1;P1;durP2;ratioP2;P2;SDS_P1;SDS_P2;PMS_P1;PMS_P2;Temp;Humidity;BMP_temperature;BMP_pressure;BME280_temperature;BME280_humidity;BME280_pressure;Samples;Min_cycle;Max_cycle;Signal;HPM_P1;HPM_P2
2021/06/23 00:00:29;;;;;;;4.13;3.63;;;22.80;41.80;;;;;;10424700;28;20240;-81
2021/06/23 00:05:33;;;;;;;7.23;4.50;;;22.70;42.00;;;;;;10425368;28;20323;-81
2021/06/23 00:10:37;;;;;;;4.80;4.50;;;22.70;42.80;;;;;;10426463;28;20252;-81
2021/06/23 00:15:40;;;;;;;5.27;4.33;;;22.60;42.40;;;;;;10423142;28;20759;-81
2021/06/23 00:20:44;;;;;;;4.83;4.40;;;22.50;42.90;;;;;;10428792;28;20234;-81
2021/06/23 00:25:47;;;;;;;4.77;4.37;;;22.40;43.80;;;;;;10422918;28;20229;-81
2021/06/23 00:30:50;;;;;;;4.90;4.50;;;22.40;43.20;;;;;;10432023;28;20233;-81
2021/06/23 00:35:55;;;;;;;4.47;4.07;;;22.30;43.30;;;;;;10423850;28;20240;-81
2021/06/23 00:40:58;;;;;;;4.03;3.40;;;22.40;44.10;;;;;;10426585;28;20241;-81
2021/06/23 00:46:02;;;;;;;3.40;3.10;;;22.40;43.20;;;;;;10426245;28;20705;-77
2021/06/23 00:51:07;;;;;;;2.50;2.30;;;22.40;42.60;;;;;;10424737;28;20245;-81
2021/06/23 00:56:10;;;;;;;3.13;2.10;;;22.30;42.50;;;;;;10424049;28;20221;-81
2021/06/23 01:01:14;;;;;;;2.93;2.00;;;22.20;42.10;;;;;;10422177;28;20227;-81
2021/06/23 01:06:19;;;;;;;2.07;1.90;;;22.20;42.30;;;;;;10425811;28;20241;-80
2021/06/23 01:11:22;;;;;;;3.27;2.37;;;22.10;42.50;;;;;;10431569;28;20276;-80
2021/06/23 01:16:28;;;;;;;2.63;2.43;;;22.20;42.60;;;;;;10430133;28;20626;-80
2021/06/23 01:21:33;;;;;;;2.70;2.50;;;22.20;42.90;;;;;;10433596;28;20297;-81
2021/06/23 01:26:38;;;;;;;2.40;2.20;;;22.20;43.30;;;;;;10433713;28;20237;-80
2021/06/23 01:31:41;;;;;;;2.73;2.23;;;22.30;43.50;;;;;;10428844;28;20217;-81
2021/06/23 01:36:44;;;;;;;3.43;3.10;;;22.30;43.00;;;;;;10432402;28;20627;-82
2021/06/23 01:41:49;;;;;;;3.37;3.07;;;22.30;43.20;;;;;;10419473;28;20217;-82
2021/06/23 01:46:52;;;;;;;3.80;3.50;;;22.40;44.00;;;;;;10428661;28;20776;-82
2021/06/23 01:51:55;;;;;;;4.10;3.70;;;22.40;43.50;;;;;;10428938;28;20714;-82
2021/06/23 01:57:00;;;;;;;4.90;4.60;;;22.40;43.70;;;;;;10426867;28;20221;-82
2021/06/23 02:02:12;;;;;;;4.83;4.50;;;22.50;44.40;;;;;;10428153;28;20696;-82
2021/06/23 02:07:32;;;;;;;5.27;4.83;;;22.40;44.90;;;;;;10432439;28;20229;-83
2021/06/23 02:13:12;;;;;;;5.03;4.70;;;22.40;44.90;;;;;;10433803;28;20232;-82
2021/06/23 02:18:15;;;;;;;5.80;5.30;;;22.40;45.10;;;;;;10403952;28;20488;-83
2021/06/23 02:23:20;;;;;;;7.10;6.40;;;22.30;43.90;;;;;;10428416;28;20237;-83
2021/06/23 02:28:24;;;;;;;7.37;6.73;;;22.30;44.20;;;;;;10428103;28;20599;-83
2021/06/23 02:33:28;;;;;;;7.00;6.50;;;22.30;44.90;;;;;;10425804;28;20237;-83
2021/06/23 02:38:32;;;;;;;7.83;7.23;;;22.30;44.70;;;;;;10422782;28;20237;-83
2021/06/23 02:43:37;;;;;;;6.47;6.07;;;22.30;44.50;;;;;;10427348;28;20233;-83
2021/06/23 02:48:41;;;;;;;7.80;7.17;;;22.30;45.20;;;;;;10429500;28;20236;-83
2021/06/23 02:53:45;;;;;;;7.77;7.17;;;22.20;45.20;;;;;;10425723;28;20336;-83
2021/06/23 02:58:51;;;;;;;7.83;7.17;;;22.20;44.80;;;;;;10425692;28;20432;-83
2021/06/23 03:03:54;;;;;;;7.43;6.77;;;22.20;45.80;;;;;;10423449;28;20249;-83
2021/06/23 03:08:57;;;;;;;8.77;8.13;;;22.20;45.20;;;;;;10423600;28;20233;-83
2021/06/23 03:14:02;;;;;;;10.80;9.90;;;22.20;45.30;;;;;;10427695;28;20232;-83
2021/06/23 03:19:05;;;;;;;10.20;9.40;;;22.20;46.00;;;;;;10424535;28;20220;-83
2021/06/23 03:24:08;;;;;;;9.67;8.97;;;22.20;45.40;;;;;;10429464;28;20736;-83
2021/06/23 03:29:27;;;;;;;9.63;8.83;;;22.20;45.30;;;;;;10428112;28;20236;-84
2021/06/23 03:34:30;;;;;;;9.70;8.80;;;22.30;46.80;;;;;;10425414;28;20259;-83
2021/06/23 03:39:34;;;;;;;8.93;8.13;;;22.30;45.40;;;;;;10430836;28;20963;-83
2021/06/23 03:44:38;;;;;;;8.47;7.70;;;22.30;45.50;;;;;;10426456;28;20233;-83
2021/06/23 03:49:45;;;;;;;7.80;7.20;;;22.40;46.20;;;;;;10426185;28;20304;-83
2021/06/23 03:54:48;;;;;;;6.70;6.10;;;22.30;45.60;;;;;;10426599;28;20230;-83
2021/06/23 03:59:53;;;;;;;7.37;6.83;;;22.40;45.50;;;;;;10425012;28;20257;-83
2021/06/23 04:04:56;;;;;;;7.23;6.67;;;22.50;46.40;;;;;;10427072;28;20247;-83
2021/06/23 04:09:59;;;;;;;5.90;5.50;;;22.50;45.50;;;;;;10422589;28;20232;-84
2021/06/23 04:15:04;;;;;;;6.87;6.27;;;22.50;45.50;;;;;;10426463;28;20233;-82
2021/06/23 04:20:09;;;;;;;6.73;6.33;;;22.50;46.20;;;;;;10418797;28;20225;-83
2021/06/23 04:25:14;;;;;;;7.30;6.70;;;22.60;46.20;;;;;;10422595;28;20232;-83
2021/06/23 04:30:19;;;;;;;7.17;6.53;;;22.60;46.30;;;;;;10425767;28;20232;-83
2021/06/23 04:35:23;;;;;;;7.00;6.40;;;22.60;46.40;;;;;;10420745;28;20283;-84
2021/06/23 04:40:26;;;;;;;7.57;7.07;;;22.70;46.00;;;;;;10424798;28;20235;-83
2021/06/23 04:45:31;;;;;;;9.33;8.53;;;22.70;45.90;;;;;;10426942;28;20264;-83
2021/06/23 04:50:35;;;;;;;10.70;9.77;;;22.70;46.40;;;;;;10423308;28;20241;-84
2021/06/23 04:55:38;;;;;;;9.60;8.80;;;22.70;45.80;;;;;;10426750;28;20745;-84
2021/06/23 05:00:44;;;;;;;9.90;9.10;;;22.70;45.80;;;;;;10420436;28;20226;-84
2021/06/23 05:05:47;;;;;;;10.33;9.53;;;22.60;46.70;;;;;;10420874;28;20240;-84
2021/06/23 05:10:50;;;;;;;10.57;9.70;;;22.70;46.00;;;;;;10428519;28;20709;-85
2021/06/23 05:15:56;;;;;;;11.13;10.33;;;22.70;45.80;;;;;;10424700;28;20244;-77
2021/06/23 05:21:00;;;;;;;11.07;10.10;;;22.70;46.40;;;;;;10423103;28;20241;-78
2021/06/23 05:26:03;;;;;;;10.97;9.97;;;22.70;46.10;;;;;;10424421;28;20690;-78
2021/06/23 05:31:08;;;;;;;12.53;11.57;;;22.70;46.20;;;;;;10425972;28;20229;-77
2021/06/23 05:36:11;;;;;;;11.83;10.87;;;22.70;46.70;;;;;;10427088;28;20229;-77
2021/06/23 05:41:14;;;;;;;12.00;10.90;;;22.70;46.30;;;;;;10425087;28;20756;-77
2021/06/23 05:46:19;;;;;;;11.53;10.73;;;22.80;46.30;;;;;;10426658;28;20247;-77
2021/06/23 05:51:23;;;;;;;10.53;9.77;;;22.80;46.70;;;;;;10430492;28;20312;-76
2021/06/23 05:56:26;;;;;;;10.63;9.83;;;22.80;46.40;;;;;;10430979;28;20252;-76
2021/06/23 06:01:31;;;;;;;9.10;8.43;;;22.90;46.40;;;;;;10437181;28;20241;-79
2021/06/23 06:06:35;;;;;;;8.73;8.13;;;23.00;47.80;;;;;;10433418;28;20256;-80
2021/06/23 06:11:38;;;;;;;8.47;7.87;;;23.00;46.30;;;;;;10434956;28;20228;-77
2021/06/23 06:16:43;;;;;;;7.40;6.90;;;23.10;46.30;;;;;;10431857;28;20600;-82
2021/06/23 06:21:47;;;;;;;7.00;6.40;;;23.10;46.50;;;;;;10426814;28;20582;-81
2021/06/23 06:26:50;;;;;;;7.30;6.80;;;23.20;46.20;;;;;;10417969;28;20237;-81
2021/06/23 06:31:55;;;;;;;6.57;6.07;;;23.30;46.30;;;;;;10440037;28;20229;-80
2021/06/23 06:36:58;;;;;;;5.83;5.43;;;23.30;45.70;;;;;;10438249;28;20755;-76
2021/06/23 06:42:01;;;;;;;6.53;6.03;;;23.30;45.50;;;;;;10434969;28;20239;-76
2021/06/23 06:47:06;;;;;;;6.63;6.03;;;23.30;45.30;;;;;;10440365;28;20686;-80
2021/06/23 06:52:09;;;;;;;6.60;6.10;;;23.40;45.70;;;;;;10429465;28;20228;-81
2021/06/23 06:57:12;;;;;;;6.07;5.47;;;23.40;45.40;;;;;;10427365;28;20727;-80
2021/06/23 07:02:17;;;;;;;4.57;4.27;;;23.40;45.70;;;;;;10438046;28;20224;-81
2021/06/23 07:07:20;;;;;;;4.50;4.20;;;23.40;45.60;;;;;;10424307;28;20226;-81
2021/06/23 07:12:24;;;;;;;4.30;4.00;;;23.50;45.40;;;;;;10432542;28;20716;-81
2021/06/23 07:17:28;;;;;;;4.00;3.70;;;23.60;45.30;;;;;;10434120;28;20241;-81
2021/06/23 07:22:32;;;;;;;4.03;3.80;;;23.80;44.90;;;;;;10439210;28;20243;-82
2021/06/23 07:27:35;;;;;;;4.57;4.27;;;23.90;44.40;;;;;;10428091;28;20229;-81
2021/06/23 07:32:47;;;;;;;4.80;4.50;;;24.00;44.60;;;;;;10434725;28;20243;-82
2021/06/23 07:37:51;;;;;;;4.83;4.53;;;24.10;44.70;;;;;;10426261;28;20245;-82
2021/06/23 07:42:55;;;;;;;4.63;4.33;;;24.20;45.00;;;;;;10431753;28;20281;-76
2021/06/23 07:47:59;;;;;;;3.93;3.73;;;24.40;44.80;;;;;;10426358;28;20701;-76
2021/06/23 07:53:08;;;;;;;3.60;3.40;;;24.60;44.10;;;;;;10423108;28;20737;-76
2021/06/23 08:09:05;;;;;;;4.30;4.03;;;24.90;42.90;;;;;;10424487;28;20303;-75
2021/06/23 08:14:09;;;;;;;3.97;3.77;;;25.00;43.20;;;;;;10409297;28;20217;-76
2021/06/23 08:19:13;;;;;;;3.70;3.50;;;25.10;43.10;;;;;;10425228;28;20221;-76
2021/06/23 08:24:16;;;;;;;4.33;4.03;;;25.30;42.60;;;;;;10421084;28;20313;-76
2021/06/23 08:29:19;;;;;;;3.73;3.53;;;25.40;43.10;;;;;;10431196;28;20225;-76
2021/06/23 08:34:26;;;;;;;3.90;3.70;;;25.60;42.60;;;;;;10427144;28;20233;-76
2021/06/23 08:39:29;;;;;;;4.37;4.07;;;25.90;42.20;;;;;;10423997;28;20239;-75
2021/06/23 08:44:32;;;;;;;4.00;3.70;;;26.10;42.00;;;;;;10418989;28;20709;-76
2021/06/23 08:49:39;;;;;;;4.60;4.30;;;26.20;41.70;;;;;;10423542;28;20260;-76
2021/06/23 08:54:43;;;;;;;6.20;5.80;;;26.30;41.80;;;;;;10420627;28;20603;-75
2021/06/23 08:59:46;;;;;;;6.03;5.63;;;26.30;41.00;;;;;;10421602;28;20233;-75
2021/06/23 09:04:58;;;;;;;5.57;5.07;;;26.40;41.70;;;;;;10411228;28;20925;-83
2021/06/23 09:10:04;;;;;;;5.17;4.77;;;26.40;41.20;;;;;;10436118;28;20221;-82
2021/06/23 09:15:08;;;;;;;5.30;5.00;;;26.40;41.70;;;;;;10436289;28;20590;-82
2021/06/23 09:20:14;;;;;;;4.93;4.53;;;26.50;41.80;;;;;;10427660;28;20225;-82
2021/06/23 09:25:25;;;;;;;4.30;4.00;;;26.60;40.80;;;;;;10433342;28;20243;-81
2021/06/23 09:30:34;;;;;;;5.17;4.77;;;26.80;39.90;;;;;;10437573;28;20240;-82
2021/06/23 09:35:40;;;;;;;4.30;4.10;;;26.90;39.50;;;;;;10437918;28;20244;-82
2021/06/23 09:54:08;;;;;;;3.03;2.90;;;27.00;38.70;;;;;;10391830;28;20232;-76
2021/06/23 10:05:29;;;;;;;3.30;3.10;;;26.90;37.80;;;;;;10393939;28;20225;-76
2021/06/23 10:10:44;;;;;;;3.20;3.00;;;26.90;38.70;;;;;;10421151;28;20312;-80
2021/06/23 10:15:57;;;;;;;3.30;3.00;;;27.00;38.00;;;;;;10413810;28;20251;-80
2021/06/23 10:21:25;;;;;;;3.10;2.90;;;27.10;37.80;;;;;;10417531;28;20233;-80
2021/06/23 10:26:31;;;;;;;3.20;3.00;;;27.30;38.50;;;;;;10440705;28;20741;-80
2021/06/23 10:32:18;;;;;;;3.10;2.90;;;27.40;37.70;;;;;;10433357;28;20232;-80
2021/06/23 10:37:25;;;;;;;3.57;3.27;;;27.60;37.90;;;;;;10442633;28;20225;-80
2021/06/23 10:42:31;;;;;;;3.33;3.03;;;27.70;37.40;;;;;;10436533;28;20233;-80
2021/06/23 10:47:39;;;;;;;3.00;2.80;;;27.90;36.90;;;;;;10437960;28;20229;-78
2021/06/23 10:52:44;;;;;;;3.40;3.20;;;28.10;37.10;;;;;;10429965;28;20240;-80
2021/06/23 10:57:51;;;;;;;3.20;3.00;;;28.10;36.70;;;;;;10422801;28;20252;-80
2021/06/23 11:03:02;;;;;;;3.17;2.97;;;28.30;35.90;;;;;;10429524;28;21346;-80
2021/06/23 11:08:26;;;;;;;3.60;3.40;;;28.50;35.60;;;;;;10437638;28;20260;-79
2021/06/23 11:13:33;;;;;;;3.50;3.30;;;28.70;35.70;;;;;;10429436;28;20265;-80
2021/06/23 11:18:38;;;;;;;3.40;3.20;;;28.80;34.80;;;;;;10412405;28;20239;-75
2021/06/23 11:23:47;;;;;;;3.93;3.63;;;28.90;35.70;;;;;;10430413;28;20244;-81
2021/06/23 11:28:53;;;;;;;3.70;3.50;;;29.00;35.10;;;;;;10427551;28;20233;-81
2021/06/23 11:33:58;;;;;;;4.00;3.80;;;29.10;33.80;;;;;;10429191;28;20265;-81
2021/06/23 11:39:03;;;;;;;3.60;3.40;;;29.30;34.60;;;;;;10423169;28;20240;-75
2021/06/23 11:44:08;;;;;;;4.00;3.80;;;29.40;35.00;;;;;;10423527;28;20241;-74
2021/06/23 11:49:11;;;;;;;3.90;3.70;;;29.50;34.00;;;;;;10421465;28;20244;-74
2021/06/23 11:54:14;;;;;;;3.90;3.70;;;29.60;35.20;;;;;;10424976;28;20225;-74
2021/06/23 11:59:19;;;;;;;4.47;4.27;;;29.80;34.10;;;;;;10422092;28;20632;-74
2021/06/23 12:04:23;;;;;;;4.60;4.30;;;29.90;33.40;;;;;;10421823;28;20238;-74
2021/06/23 12:09:26;;;;;;;4.60;4.20;;;30.00;33.70;;;;;;10423019;28;20228;-74
2021/06/23 12:14:30;;;;;;;4.07;3.83;;;30.10;33.20;;;;;;10434587;23;20597;-74
2021/06/23 12:19:34;;;;;;;3.90;3.70;;;30.10;31.60;;;;;;10421559;28;20348;-74
2021/06/23 12:24:37;;;;;;;4.10;3.80;;;30.20;33.10;;;;;;10418167;28;20246;-74
2021/06/23 12:29:41;;;;;;;4.27;3.97;;;30.20;32.70;;;;;;10423824;28;20234;-74
2021/06/23 12:34:46;;;;;;;4.03;3.73;;;30.20;31.90;;;;;;10424983;28;20237;-74
2021/06/23 12:39:49;;;;;;;4.20;3.90;;;30.10;32.10;;;;;;10415266;28;20238;-74
2021/06/23 12:45:41;;;;;;;4.30;4.00;;;30.00;31.90;;;;;;10423047;28;20234;-74
2021/06/23 12:50:46;;;;;;;4.07;3.77;;;30.00;31.70;;;;;;10423283;28;20225;-74
2021/06/23 12:55:50;;;;;;;3.70;3.50;;;30.00;31.50;;;;;;10427052;28;21552;-74
2021/06/23 13:00:53;;;;;;;3.40;3.20;;;30.00;31.90;;;;;;10422173;28;20237;-74
2021/06/23 13:06:01;;;;;;;4.07;3.80;;;30.10;31.60;;;;;;10432445;28;20224;-74
2021/06/23 13:11:05;;;;;;;3.93;3.73;;;30.20;31.60;;;;;;10423511;28;20272;-74
2021/06/23 13:16:10;;;;;;;3.80;3.60;;;30.20;31.70;;;;;;10425580;28;20599;-71
2021/06/23 13:21:16;;;;;;;4.17;3.87;;;30.20;31.70;;;;;;10436492;28;20229;-78
2021/06/23 13:26:21;;;;;;;4.23;4.00;;;30.20;31.70;;;;;;10429925;28;20233;-78
2021/06/23 13:31:25;;;;;;;4.87;4.47;;;30.10;31.60;;;;;;10441109;28;20712;-78
2021/06/23 13:36:29;;;;;;;4.50;4.20;;;30.10;31.60;;;;;;10434294;28;20245;-78
2021/06/23 13:41:33;;;;;;;4.30;4.00;;;29.90;31.00;;;;;;10437055;28;20747;-78
2021/06/23 13:46:36;;;;;;;4.07;3.83;;;29.80;31.40;;;;;;10443112;28;20603;-78
2021/06/23 13:51:41;;;;;;;3.93;3.70;;;29.70;31.30;;;;;;10445667;28;20652;-79
2021/06/23 13:56:44;;;;;;;3.30;3.10;;;29.70;31.20;;;;;;10439112;28;20259;-78
2021/06/23 14:01:48;;;;;;;3.40;3.20;;;29.70;31.30;;;;;;10436908;28;20237;-78
2021/06/23 14:06:55;;;;;;;3.60;3.30;;;29.80;31.40;;;;;;10443997;28;20227;-78
2021/06/23 14:11:59;;;;;;;3.57;3.37;;;29.90;30.80;;;;;;10441665;28;20235;-78
2021/06/23 14:17:02;;;;;;;3.53;3.33;;;30.00;31.50;;;;;;10440986;28;20229;-77
2021/06/23 14:22:07;;;;;;;5.07;3.30;;;30.10;31.60;;;;;;10443361;28;20279;-77
2021/06/23 14:27:10;;;;;;;3.60;3.37;;;30.20;30.50;;;;;;10426833;28;20259;-74
2021/06/23 14:32:14;;;;;;;3.50;3.20;;;30.30;30.70;;;;;;10427136;28;20225;-74
2021/06/23 14:37:19;;;;;;;2.87;2.73;;;30.40;30.40;;;;;;10424223;28;20261;-74
2021/06/23 14:42:22;;;;;;;3.00;2.80;;;30.40;29.80;;;;;;10428795;28;20239;-74
2021/06/23 14:47:25;;;;;;;3.20;3.00;;;30.50;30.00;;;;;;10426387;28;20712;-74
2021/06/23 14:52:30;;;;;;;3.10;2.80;;;30.60;29.60;;;;;;10431781;28;20287;-74
2021/06/23 14:57:33;;;;;;;3.50;3.30;;;30.60;29.10;;;;;;10433775;28;20231;-78
2021/06/23 15:02:37;;;;;;;3.23;3.03;;;30.70;29.50;;;;;;10442362;28;20239;-78
2021/06/23 15:07:42;;;;;;;3.20;3.00;;;30.70;29.40;;;;;;10428963;28;20229;-75
2021/06/23 15:12:46;;;;;;;3.10;2.90;;;30.70;28.80;;;;;;10431625;28;20239;-75
2021/06/23 15:17:50;;;;;;;3.30;3.10;;;30.70;29.00;;;;;;10443668;28;20265;-78
2021/06/23 15:22:55;;;;;;;2.97;2.77;;;30.70;28.90;;;;;;10429515;28;20238;-80
2021/06/23 15:27:59;;;;;;;3.13;2.93;;;30.70;28.60;;;;;;10431721;28;20240;-78
2021/06/23 15:33:02;;;;;;;3.10;2.90;;;30.60;28.90;;;;;;10431205;28;20229;-75
2021/06/23 15:38:11;;;;;;;2.97;2.70;;;30.80;29.00;;;;;;10438598;28;20316;-79
2021/06/23 15:43:16;;;;;;;2.90;2.70;;;30.80;28.60;;;;;;10435235;28;20252;-74
2021/06/23 15:48:20;;;;;;;3.30;3.00;;;30.90;28.60;;;;;;10424706;28;20911;-74
2021/06/23 15:53:25;;;;;;;3.07;2.87;;;30.90;28.40;;;;;;10426548;28;20364;-74
2021/06/23 15:58:31;;;;;;;3.00;2.80;;;30.90;27.90;;;;;;10422058;28;20749;-74
2021/06/23 16:03:34;;;;;;;4.03;3.13;;;30.90;28.40;;;;;;10430470;28;20247;-78
2021/06/23 16:08:39;;;;;;;3.23;3.03;;;30.90;27.90;;;;;;10428179;28;20824;-78
2021/06/23 16:13:43;;;;;;;3.10;2.90;;;30.80;27.70;;;;;;10434136;28;20242;-78
2021/06/23 16:18:46;;;;;;;3.20;3.00;;;30.80;28.10;;;;;;10434050;28;20225;-78
2021/06/23 16:23:57;;;;;;;3.37;3.10;;;30.80;28.50;;;;;;10437557;28;20244;-78
2021/06/23 16:29:01;;;;;;;3.00;2.90;;;30.80;27.90;;;;;;10440899;28;20228;-79
2021/06/23 16:34:04;;;;;;;3.17;2.97;;;30.80;28.00;;;;;;10430818;28;20232;-78
2021/06/23 16:39:09;;;;;;;3.40;3.10;;;30.70;28.20;;;;;;10439524;28;20229;-78
2021/06/23 16:44:13;;;;;;;3.87;2.93;;;30.70;28.10;;;;;;10431678;28;20232;-78
2021/06/23 16:49:16;;;;;;;3.17;2.97;;;30.70;27.90;;;;;;10433894;28;20225;-78
2021/06/23 16:54:21;;;;;;;3.43;3.13;;;30.70;27.70;;;;;;10429589;28;20240;-78
2021/06/23 16:59:24;;;;;;;3.20;3.00;;;30.60;27.50;;;;;;10428710;28;20713;-77
2021/06/23 17:04:29;;;;;;;3.47;3.20;;;30.50;27.80;;;;;;10424111;28;20250;-76
2021/06/23 17:09:34;;;;;;;3.60;3.40;;;30.40;28.00;;;;;;10427511;28;20237;-76
2021/06/23 17:14:38;;;;;;;3.80;3.50;;;30.30;27.90;;;;;;10426762;28;20234;-76
2021/06/23 17:19:41;;;;;;;4.07;3.77;;;30.20;28.20;;;;;;10425045;28;20237;-78
2021/06/23 17:24:47;;;;;;;4.00;3.80;;;30.10;28.30;;;;;;10426855;28;20267;-78
2021/06/23 17:29:50;;;;;;;4.73;4.33;;;30.00;28.30;;;;;;10428047;28;20221;-79
2021/06/23 17:34:54;;;;;;;3.57;3.37;;;29.90;28.60;;;;;;10440189;28;20224;-79
2021/06/23 17:39:59;;;;;;;4.40;4.10;;;29.90;28.70;;;;;;10444996;28;20229;-79
2021/06/23 17:45:03;;;;;;;4.03;3.80;;;29.80;28.70;;;;;;10425182;28;20240;-77
2021/06/23 17:50:07;;;;;;;4.20;3.90;;;29.70;28.80;;;;;;10427000;28;20236;-74
2021/06/23 17:55:13;;;;;;;4.27;3.97;;;29.70;28.90;;;;;;10426651;28;20233;-75
2021/06/23 18:00:18;;;;;;;4.60;4.27;;;29.60;28.80;;;;;;10429714;28;20671;-74
2021/06/23 18:05:22;;;;;;;4.57;4.27;;;29.60;29.60;;;;;;10429226;28;20319;-75
2021/06/23 18:10:27;;;;;;;4.60;4.30;;;29.50;29.00;;;;;;10427205;28;20237;-81
2021/06/23 18:15:31;;;;;;;5.00;4.60;;;29.30;29.00;;;;;;10428763;28;20324;-81
2021/06/23 18:20:34;;;;;;;4.70;4.40;;;29.20;29.10;;;;;;10428321;28;20241;-76
2021/06/23 18:25:40;;;;;;;5.10;4.70;;;29.20;29.40;;;;;;10427774;28;20229;-80
2021/06/23 18:30:43;;;;;;;5.47;5.07;;;29.10;29.50;;;;;;10423893;28;20577;-80
2021/06/23 18:35:46;;;;;;;5.80;5.27;;;29.00;29.50;;;;;;10424600;28;20230;-80
2021/06/23 18:40:51;;;;;;;6.60;5.93;;;28.90;29.60;;;;;;10426303;28;20228;-80
2021/06/23 18:45:55;;;;;;;6.03;5.63;;;28.80;29.40;;;;;;10424636;28;20230;-80
2021/06/23 18:50:58;;;;;;;6.43;5.87;;;28.60;29.50;;;;;;10426998;28;20232;-73
2021/06/23 18:56:03;;;;;;;7.13;6.53;;;28.50;29.90;;;;;;10425712;28;20230;-81
2021/06/23 19:01:06;;;;;;;7.43;6.73;;;28.40;30.50;;;;;;10423702;28;20766;-78
2021/06/23 19:06:09;;;;;;;7.43;6.70;;;28.20;30.30;;;;;;10423588;28;20237;-78
2021/06/23 19:11:14;;;;;;;7.00;6.47;;;28.10;30.30;;;;;;10430791;28;20646;-78
2021/06/23 19:16:18;;;;;;;7.73;7.13;;;27.90;30.90;;;;;;10424190;28;20224;-77
2021/06/23 19:21:21;;;;;;;8.33;7.60;;;27.80;31.00;;;;;;10424203;28;20233;-77
2021/06/23 19:26:26;;;;;;;9.17;8.40;;;27.60;31.00;;;;;;10414216;28;20629;-78
2021/06/23 19:31:30;;;;;;;8.53;7.83;;;27.50;31.80;;;;;;10422230;28;20235;-77
2021/06/23 19:36:33;;;;;;;9.33;8.53;;;27.30;31.50;;;;;;10420884;28;20245;-79
2021/06/23 19:41:38;;;;;;;8.80;8.10;;;27.20;32.10;;;;;;10425432;28;20229;-78
2021/06/23 19:46:41;;;;;;;8.97;8.23;;;26.90;32.80;;;;;;10426660;28;20240;-74
2021/06/23 19:51:45;;;;;;;7.97;7.27;;;26.60;32.60;;;;;;10425929;28;20225;-78
2021/06/23 19:56:50;;;;;;;5.53;5.03;;;26.20;32.40;;;;;;10424466;28;20329;-77
2021/06/23 20:01:59;;;;;;;5.83;5.33;;;25.90;33.00;;;;;;10425066;28;20221;-77
2021/06/23 20:07:03;;;;;;;5.70;5.20;;;25.70;33.60;;;;;;10430446;28;20229;-76
2021/06/23 20:12:11;;;;;;;6.63;6.03;;;25.60;33.80;;;;;;10429185;28;20232;-76
2021/06/23 20:17:16;;;;;;;6.83;6.30;;;25.50;35.60;;;;;;10428560;28;20767;-77
2021/06/23 20:27:41;;;;;;;6.07;5.57;;;25.40;35.00;;;;;;10426662;28;20220;-74
2021/06/23 20:32:46;;;;;;;6.23;5.73;;;25.40;35.10;;;;;;10422916;28;20235;-77
2021/06/23 20:37:49;;;;;;;6.03;5.53;;;25.40;34.80;;;;;;10419676;28;20229;-78
2021/06/23 20:42:55;;;;;;;5.43;5.03;;;25.10;34.60;;;;;;10430720;28;20735;-78
2021/06/23 20:48:00;;;;;;;5.73;5.30;;;24.90;35.50;;;;;;10421046;28;20304;-78
2021/06/23 20:53:19;;;;;;;5.73;5.23;;;24.80;35.30;;;;;;10407924;28;20286;-78
2021/06/23 20:58:51;;;;;;;6.80;6.20;;;24.60;36.50;;;;;;10372153;28;20753;-79
2021/06/23 21:04:10;;;;;;;6.33;5.83;;;24.50;36.80;;;;;;10407376;28;20306;-80
2021/06/23 21:10:17;;;;;;;6.23;5.73;;;24.40;36.90;;;;;;10409120;28;20270;-79
2021/06/23 21:21:09;;;;;;;9.37;8.47;;;24.40;36.20;;;;;;10492958;27;20578;-75
2021/06/23 21:26:14;;;;;;;10.23;9.33;;;24.40;37.90;;;;;;10478377;28;20224;-75
2021/06/23 21:31:19;;;;;;;10.17;9.27;;;24.40;37.60;;;;;;10478678;28;20272;-76
2021/06/23 21:36:24;;;;;;;10.70;9.70;;;24.30;37.40;;;;;;10478127;28;20313;-76
2021/06/23 21:41:35;;;;;;;11.07;10.10;;;24.20;38.30;;;;;;10477402;28;20234;-76
2021/06/23 21:46:41;;;;;;;11.63;10.63;;;24.10;38.30;;;;;;10486101;28;20728;-75
2021/06/23 21:52:00;;;;;;;10.70;9.80;;;24.00;38.60;;;;;;10488271;28;20290;-75
2021/06/23 21:57:06;;;;;;;11.73;10.73;;;23.90;39.90;;;;;;10481864;28;20234;-75
2021/06/23 22:02:10;;;;;;;11.03;10.03;;;23.80;38.90;;;;;;10492127;28;20224;-75
2021/06/23 22:07:17;;;;;;;11.00;10.00;;;23.80;38.90;;;;;;10460365;28;20224;-75
2021/06/23 22:12:23;;;;;;;11.50;10.50;;;23.90;39.90;;;;;;10483648;28;20614;-75
2021/06/23 22:17:27;;;;;;;11.73;10.50;;;23.90;39.90;;;;;;10500397;28;20231;-75
2021/06/23 22:22:32;;;;;;;12.10;10.90;;;23.90;39.50;;;;;;10511354;28;20228;-76
2021/06/23 22:27:35;;;;;;;11.97;10.87;;;24.00;40.00;;;;;;10482254;28;20229;-75
2021/06/23 22:32:39;;;;;;;11.53;10.53;;;24.00;39.50;;;;;;10454957;28;20228;-76
2021/06/23 22:37:44;;;;;;;11.70;10.53;;;23.80;39.60;;;;;;10454266;28;20252;-76
2021/06/23 22:42:55;;;;;;;11.23;10.33;;;23.70;39.80;;;;;;10454494;28;20221;-76
2021/06/23 22:48:01;;;;;;;11.37;10.47;;;23.60;39.70;;;;;;10463151;28;20232;-76
2021/06/23 22:53:09;;;;;;;10.33;9.33;;;23.50;39.60;;;;;;10495529;28;20221;-75
2021/06/23 22:58:12;;;;;;;11.50;10.50;;;23.50;40.60;;;;;;10495956;28;20228;-75
2021/06/23 23:03:16;;;;;;;11.80;10.73;;;23.40;39.70;;;;;;10475817;28;20229;-75
2021/06/23 23:08:21;;;;;;;12.00;10.93;;;23.40;39.80;;;;;;10453629;28;20290;-75
2021/06/23 23:13:24;;;;;;;11.27;10.27;;;23.30;40.80;;;;;;10453575;28;20617;-76
2021/06/23 23:18:31;;;;;;;10.80;9.80;;;23.10;40.10;;;;;;10453151;28;20221;-76
2021/06/23 23:23:36;;;;;;;12.33;11.23;;;23.00;42.20;;;;;;10453022;28;20282;-77
2021/06/23 23:28:39;;;;;;;11.67;10.67;;;23.00;42.20;;;;;;10452759;28;20720;-75
2021/06/23 23:33:43;;;;;;;11.83;10.87;;;22.90;41.20;;;;;;10452830;28;20619;-76
2021/06/23 23:38:48;;;;;;;12.43;11.23;;;23.00;41.50;;;;;;10452331;28;20695;-75
2021/06/23 23:43:51;;;;;;;12.97;11.80;;;23.00;42.40;;;;;;10451351;28;20225;-76
2021/06/23 23:48:55;;;;;;;12.87;11.67;;;22.90;41.60;;;;;;10484763;28;20232;-76
2021/06/23 23:54:00;;;;;;;13.67;12.37;;;22.90;41.70;;;;;;10492928;28;20726;-76
2021/06/23 23:59:03;;;;;;;12.77;11.57;;;22.80;42.70;;;;;;10492428;28;20232;-76
